Fountain City, Tennessee
Current Conditions -  °F | °C
As of 3:53 PM on Saturday 20 Dec 2014 (Local Time) from KOQT Reporting Station
Overcast Overcast  
Wind Chill: 47°   Ceiling: 4200
Heat Index: 47°   Visibility: 10mi
Dew Point: 32°   Wind: 3mph
Humidity: 56%   Direction: 160°SSE
Pressure: 30.2"   Gusts: NA
Location:  36.1232°N, 83.9406°W
Report Text: KOQT 202053Z AUTO 16003KT 10SM OVC042 08/00 A3020 RMK AO2 SLP234 T00830000 55005
Loading
Personal Weather Stations






























Interactive Weather Map New forecast layout! Learn more

10-Day Weather Forecast

Advertisements
Track Severe Weather on mobile